Time;durP1;ratioP1;P1;durP2;ratioP2;P2;SDS_P1;SDS_P2;PMS_P1;PMS_P2;Temp;Humidity;BMP_temperature;BMP_pressure;BME280_temperature;BME280_humidity;BME280_pressure;Samples;Min_cycle;Max_cycle;Signal;HPM_P1;HPM_P2
2021/10/24 00:00:57;;;;;;;79.47;37.90;;;0.00;99.90;;;;;;5016438;28;20053;-73
2021/10/24 00:03:23;;;;;;;83.00;40.38;;;-0.10;99.90;;;;;;5015402;28;20037;-74
2021/10/24 00:05:49;;;;;;;73.95;36.67;;;-0.10;99.90;;;;;;5014652;28;20040;-75
2021/10/24 00:08:14;;;;;;;76.93;34.63;;;-0.10;99.90;;;;;;5031028;28;20025;-74
2021/10/24 00:10:40;;;;;;;87.28;37.97;;;-0.10;99.90;;;;;;5032368;28;20033;-73
2021/10/24 00:13:06;;;;;;;71.57;36.65;;;-0.10;99.90;;;;;;5032160;28;20037;-74
2021/10/24 00:15:31;;;;;;;71.75;37.33;;;-0.10;99.90;;;;;;5034157;28;20094;-74
2021/10/24 00:17:57;;;;;;;96.72;39.55;;;-0.10;99.90;;;;;;5034268;28;20495;-74
2021/10/24 00:20:23;;;;;;;78.10;38.28;;;-0.10;99.90;;;;;;5034194;28;20029;-74
2021/10/24 00:22:48;;;;;;;80.72;38.25;;;-0.10;99.90;;;;;;5024911;28;20161;-74
2021/10/24 00:25:14;;;;;;;78.13;38.88;;;-0.20;99.90;;;;;;5012991;28;20041;-73
2021/10/24 00:27:40;;;;;;;90.55;38.30;;;-0.20;99.90;;;;;;5014534;28;20037;-74
2021/10/24 00:30:06;;;;;;;103.82;45.92;;;-0.20;99.90;;;;;;5014171;28;20032;-73
2021/10/24 00:32:32;;;;;;;89.35;43.63;;;-0.30;99.90;;;;;;5027878;28;20076;-74
2021/10/24 00:34:58;;;;;;;104.18;45.75;;;-0.40;99.90;;;;;;5033718;28;20558;-74
2021/10/24 00:37:23;;;;;;;111.55;45.88;;;-0.40;99.90;;;;;;5025497;28;20109;-74
2021/10/24 00:39:49;;;;;;;109.00;46.90;;;-0.50;99.90;;;;;;5012731;28;20022;-73
2021/10/24 00:42:15;;;;;;;89.10;43.50;;;-0.50;99.90;;;;;;5027882;28;20112;-75
2021/10/24 00:44:40;;;;;;;101.80;45.17;;;-0.50;99.90;;;;;;5033726;28;20017;-74
2021/10/24 00:47:07;;;;;;;92.93;41.92;;;-0.60;99.90;;;;;;5032493;28;20036;-74
2021/10/24 00:49:34;;;;;;;97.00;43.13;;;-0.60;99.90;;;;;;5031918;28;20017;-73
2021/10/24 00:52:00;;;;;;;98.90;43.40;;;-0.60;99.90;;;;;;5033586;28;20014;-74
2021/10/24 00:54:27;;;;;;;93.70;41.33;;;-0.60;99.90;;;;;;5031944;28;20039;-73
2021/10/24 00:56:55;;;;;;;98.32;45.03;;;-0.60;99.90;;;;;;5032162;28;20080;-74
2021/10/24 00:59:22;;;;;;;97.18;43.75;;;-0.70;99.90;;;;;;5033477;28;20569;-74
2021/10/24 01:01:48;;;;;;;97.07;45.90;;;-0.70;99.90;;;;;;5025680;28;20041;-74
2021/10/24 01:04:14;;;;;;;107.80;46.72;;;-0.80;99.90;;;;;;5030998;28;20029;-74
2021/10/24 01:06:41;;;;;;;99.53;46.53;;;-0.80;99.90;;;;;;5032101;28;20048;-75
2021/10/24 01:09:12;;;;;;;103.80;45.85;;;-0.80;99.90;;;;;;5013630;28;20034;-74
2021/10/24 01:11:39;;;;;;;92.68;44.55;;;-0.80;99.90;;;;;;5024819;28;20033;-74
2021/10/24 01:14:04;;;;;;;100.47;45.17;;;-0.90;99.90;;;;;;5033213;28;20026;-73
2021/10/24 01:16:34;;;;;;;106.10;46.90;;;-0.90;99.90;;;;;;5033138;28;20049;-75
2021/10/24 01:19:08;;;;;;;121.88;50.15;;;-0.90;99.90;;;;;;5031776;28;20410;-74
2021/10/24 01:21:35;;;;;;;109.05;46.58;;;-0.90;99.90;;;;;;5031831;28;20017;-74
2021/10/24 01:24:00;;;;;;;114.07;48.53;;;-1.00;99.90;;;;;;5031728;28;20521;-74
2021/10/24 01:26:28;;;;;;;118.35;48.47;;;-1.00;99.90;;;;;;5017409;28;20211;-74
2021/10/24 01:28:54;;;;;;;114.22;51.53;;;-1.00;99.90;;;;;;5011722;28;20372;-73
2021/10/24 01:31:19;;;;;;;122.43;47.90;;;-1.00;99.90;;;;;;5013457;28;20481;-74
2021/10/24 01:33:45;;;;;;;105.35;45.47;;;-1.00;99.90;;;;;;5011946;28;20109;-74
2021/10/24 01:36:11;;;;;;;105.10;39.90;;;-1.00;99.90;;;;;;5014184;28;20064;-74
2021/10/24 01:38:42;;;;;;;98.05;37.72;;;-1.00;99.90;;;;;;5013042;28;20040;-74
2021/10/24 01:41:09;;;;;;;95.55;40.17;;;-0.90;99.90;;;;;;5011818;28;20037;-74
2021/10/24 01:43:34;;;;;;;137.60;44.13;;;-0.90;99.90;;;;;;5011876;28;20049;-73
2021/10/24 01:46:00;;;;;;;88.78;41.78;;;-0.90;99.90;;;;;;5013133;28;20057;-75
2021/10/24 01:48:26;;;;;;;101.10;43.40;;;-0.90;99.90;;;;;;5013063;28;20022;-74
2021/10/24 01:50:53;;;;;;;92.10;40.15;;;-0.90;99.90;;;;;;5012893;28;20451;-74
2021/10/24 01:53:22;;;;;;;94.00;40.20;;;-0.90;99.90;;;;;;5011812;28;20040;-74
2021/10/24 01:55:47;;;;;;;93.05;36.47;;;-0.90;99.90;;;;;;5011652;28;20041;-74
2021/10/24 01:58:13;;;;;;;81.88;34.55;;;-0.90;99.90;;;;;;5011658;28;20037;-74
2021/10/24 02:00:40;;;;;;;92.25;41.20;;;-0.90;99.90;;;;;;5013155;28;20026;-73
2021/10/24 02:03:06;;;;;;;93.05;39.85;;;-0.90;99.90;;;;;;5016209;28;20495;-74
2021/10/24 02:05:32;;;;;;;99.90;41.50;;;-0.90;99.90;;;;;;5016824;28;20021;-73
2021/10/24 02:07:57;;;;;;;103.15;41.10;;;-0.80;99.90;;;;;;5026726;28;20030;-74
2021/10/24 02:10:23;;;;;;;92.53;39.95;;;-0.80;99.90;;;;;;5030964;28;20022;-74
2021/10/24 02:12:49;;;;;;;100.13;43.53;;;-0.80;99.90;;;;;;5015569;28;20061;-74
2021/10/24 02:15:15;;;;;;;95.68;44.83;;;-0.80;99.90;;;;;;5016651;28;20022;-74
2021/10/24 02:17:41;;;;;;;95.05;42.53;;;-0.80;99.90;;;;;;5015435;28;20018;-74
2021/10/24 02:20:08;;;;;;;85.65;38.80;;;-0.70;99.90;;;;;;5016544;28;20037;-74
2021/10/24 02:22:35;;;;;;;73.57;33.63;;;-0.70;99.90;;;;;;5015444;28;20009;-74
2021/10/24 02:25:01;;;;;;;85.22;36.83;;;-0.70;99.90;;;;;;5016608;28;20479;-74
2021/10/24 02:27:27;;;;;;;70.18;36.00;;;-0.60;99.90;;;;;;5016330;28;20084;-74
2021/10/24 02:29:52;;;;;;;86.47;38.33;;;-0.60;99.90;;;;;;5015037;28;20057;-74
2021/10/24 02:32:18;;;;;;;87.72;38.95;;;-0.50;99.90;;;;;;5017349;28;20555;-75
2021/10/24 02:34:44;;;;;;;91.40;38.50;;;-0.50;99.90;;;;;;5016234;28;20034;-74
2021/10/24 02:37:10;;;;;;;94.00;40.38;;;-0.50;99.90;;;;;;5017138;28;20521;-75
2021/10/24 02:39:35;;;;;;;89.28;38.95;;;-0.40;99.90;;;;;;5036175;28;20116;-73
2021/10/24 02:42:02;;;;;;;100.57;45.17;;;-0.50;99.90;;;;;;5035759;28;20144;-74
2021/10/24 02:44:28;;;;;;;88.28;39.55;;;-0.40;99.90;;;;;;5034773;28;20509;-73
2021/10/24 02:46:56;;;;;;;88.53;40.60;;;-0.40;99.90;;;;;;5035924;28;20022;-75
2021/10/24 02:49:22;;;;;;;79.68;38.60;;;-0.40;99.90;;;;;;5035915;28;20100;-74
2021/10/24 02:51:48;;;;;;;84.90;40.75;;;-0.30;99.90;;;;;;5034631;28;20140;-74
2021/10/24 02:54:15;;;;;;;91.63;44.10;;;-0.30;99.90;;;;;;5020499;28;20030;-74
2021/10/24 02:56:41;;;;;;;96.68;40.15;;;-0.30;99.90;;;;;;5014673;28;20076;-74
2021/10/24 02:59:06;;;;;;;86.57;39.05;;;-0.20;99.90;;;;;;5015954;28;20060;-74
2021/10/24 03:01:32;;;;;;;92.65;42.03;;;-0.30;99.90;;;;;;5014840;28;20590;-74
2021/10/24 03:03:58;;;;;;;92.32;44.25;;;-0.20;99.90;;;;;;5014485;28;20467;-74
2021/10/24 03:06:23;;;;;;;82.97;40.70;;;-0.20;99.90;;;;;;5015932;28;20021;-74
2021/10/24 03:08:49;;;;;;;84.07;39.00;;;-0.10;99.90;;;;;;5020609;28;20026;-74
2021/10/24 03:11:15;;;;;;;88.28;40.95;;;-0.10;99.90;;;;;;5034267;28;20395;-74
2021/10/24 03:13:40;;;;;;;91.25;38.63;;;0.00;99.90;;;;;;5033655;28;20037;-74
2021/10/24 03:16:06;;;;;;;92.05;39.35;;;0.00;99.90;;;;;;5034529;28;20064;-76
2021/10/24 03:18:32;;;;;;;83.20;40.42;;;0.00;99.90;;;;;;5033974;28;20434;-73
2021/10/24 03:20:57;;;;;;;80.28;39.00;;;0.10;99.90;;;;;;5035312;28;20025;-74
2021/10/24 03:23:23;;;;;;;87.97;40.10;;;0.20;99.90;;;;;;5033372;28;20025;-73
2021/10/24 03:25:49;;;;;;;86.55;39.97;;;0.20;99.90;;;;;;5035239;28;20041;-74
2021/10/24 03:28:15;;;;;;;83.32;37.83;;;0.30;99.90;;;;;;5033974;28;20064;-74
2021/10/24 03:30:41;;;;;;;72.68;34.78;;;0.40;99.90;;;;;;5033355;28;20052;-73
2021/10/24 03:33:07;;;;;;;80.00;32.97;;;0.50;99.90;;;;;;5030128;28;20065;-74
2021/10/24 03:35:32;;;;;;;77.82;33.08;;;0.50;99.90;;;;;;5034920;28;20029;-74
2021/10/24 03:37:58;;;;;;;81.15;36.13;;;0.50;99.90;;;;;;5032919;28;20029;-74
2021/10/24 03:40:24;;;;;;;83.80;39.67;;;0.60;99.90;;;;;;5033685;28;20029;-74
2021/10/24 03:42:49;;;;;;;79.20;37.40;;;0.60;99.90;;;;;;5033332;28;20116;-75
2021/10/24 03:45:15;;;;;;;80.22;37.58;;;0.60;99.90;;;;;;5033173;28;20030;-74
2021/10/24 03:47:41;;;;;;;89.72;32.08;;;0.60;99.90;;;;;;5033525;28;20014;-74
2021/10/24 03:50:07;;;;;;;84.82;34.65;;;0.60;99.90;;;;;;5033175;28;20050;-74
2021/10/24 03:52:33;;;;;;;58.92;26.45;;;0.60;99.90;;;;;;5033533;28;20395;-74
2021/10/24 03:54:59;;;;;;;67.43;27.70;;;0.60;99.90;;;;;;5034556;28;20026;-74
2021/10/24 03:57:25;;;;;;;64.95;27.42;;;0.70;99.90;;;;;;5033481;28;20529;-74
2021/10/24 03:59:50;;;;;;;57.25;26.73;;;0.70;99.90;;;;;;5034491;28;20029;-74
2021/10/24 04:02:16;;;;;;;72.63;24.45;;;0.70;99.90;;;;;;5026616;28;20133;-73
2021/10/24 04:04:44;;;;;;;67.78;22.27;;;0.80;99.90;;;;;;5013446;28;20072;-74
2021/10/24 04:07:10;;;;;;;149.05;30.20;;;0.80;99.90;;;;;;5014718;28;20022;-74
2021/10/24 04:09:36;;;;;;;77.80;24.60;;;0.80;99.90;;;;;;5014580;28;20022;-73
2021/10/24 04:12:02;;;;;;;91.53;23.48;;;0.80;99.90;;;;;;5015439;28;20030;-74
2021/10/24 04:14:28;;;;;;;98.80;23.63;;;0.80;99.90;;;;;;5013276;28;20541;-74
2021/10/24 04:16:54;;;;;;;94.82;23.27;;;0.80;99.90;;;;;;5014569;28;20034;-74
2021/10/24 04:19:20;;;;;;;109.93;24.50;;;0.80;99.90;;;;;;5014473;28;20026;-74
2021/10/24 04:21:45;;;;;;;123.70;27.38;;;0.80;99.90;;;;;;5013139;28;20022;-73
2021/10/24 04:24:11;;;;;;;79.30;19.92;;;0.80;99.90;;;;;;5012459;28;20471;-74
2021/10/24 04:26:37;;;;;;;93.22;22.50;;;0.80;99.90;;;;;;5014433;28;20487;-74
2021/10/24 04:29:03;;;;;;;86.97;20.42;;;0.80;99.90;;;;;;5014209;28;20026;-74
2021/10/24 04:31:29;;;;;;;60.33;18.33;;;0.80;99.90;;;;;;5014157;28;20026;-74
2021/10/24 04:33:55;;;;;;;135.02;24.73;;;0.80;99.90;;;;;;5032682;28;20116;-73
2021/10/24 04:36:20;;;;;;;69.53;17.08;;;0.80;99.90;;;;;;5033884;28;20159;-74
2021/10/24 04:38:46;;;;;;;53.10;19.38;;;0.80;99.90;;;;;;5033005;28;20025;-74
2021/10/24 04:41:12;;;;;;;56.10;16.48;;;0.80;99.90;;;;;;5032552;28;20021;-74
2021/10/24 04:43:37;;;;;;;56.45;16.20;;;0.80;99.90;;;;;;5033420;28;20032;-74
2021/10/24 04:46:03;;;;;;;46.00;15.40;;;0.80;99.90;;;;;;5033130;28;20025;-74
2021/10/24 04:48:29;;;;;;;92.57;20.58;;;0.70;99.90;;;;;;5033641;28;20021;-74
2021/10/24 04:50:54;;;;;;;78.75;17.92;;;0.80;99.90;;;;;;5033637;28;20018;-75
2021/10/24 04:53:21;;;;;;;63.15;17.52;;;0.80;99.90;;;;;;5032418;28;20075;-75
2021/10/24 04:55:47;;;;;;;81.18;18.55;;;0.80;99.90;;;;;;5032229;28;20045;-75
2021/10/24 04:58:12;;;;;;;39.67;14.55;;;0.80;99.90;;;;;;5032191;28;20026;-74
2021/10/24 05:00:38;;;;;;;89.15;19.05;;;0.70;99.90;;;;;;5030346;28;20112;-74
2021/10/24 05:03:04;;;;;;;95.38;20.13;;;0.70;99.90;;;;;;5018793;28;20044;-74
2021/10/24 05:05:29;;;;;;;70.90;17.50;;;0.80;99.90;;;;;;5013688;28;20101;-74
2021/10/24 05:07:55;;;;;;;53.75;17.23;;;0.70;99.90;;;;;;5013592;28;20434;-74
2021/10/24 05:10:21;;;;;;;45.05;16.13;;;0.70;99.90;;;;;;5013369;28;20029;-74
2021/10/24 05:12:47;;;;;;;102.57;20.38;;;0.80;99.90;;;;;;5013536;28;20399;-74
2021/10/24 05:15:12;;;;;;;119.40;29.30;;;0.70;99.90;;;;;;5012120;28;20026;-73
2021/10/24 05:17:38;;;;;;;81.07;22.60;;;0.80;99.90;;;;;;5013679;28;20467;-74
2021/10/24 05:20:05;;;;;;;70.05;19.80;;;0.80;99.90;;;;;;5013387;28;20022;-74
2021/10/24 05:22:31;;;;;;;54.10;17.88;;;0.70;99.90;;;;;;5013429;28;20021;-74
2021/10/24 05:24:57;;;;;;;79.03;18.67;;;0.70;99.90;;;;;;5013305;28;20025;-74
2021/10/24 05:27:23;;;;;;;51.88;15.57;;;0.80;99.90;;;;;;5013411;28;20032;-74
2021/10/24 05:29:49;;;;;;;71.93;17.77;;;0.70;99.90;;;;;;5011945;28;20022;-73
2021/10/24 05:32:14;;;;;;;77.95;20.67;;;0.80;99.90;;;;;;5015834;28;20026;-74
2021/10/24 05:34:42;;;;;;;101.95;31.08;;;0.80;99.90;;;;;;5011801;28;20097;-73
2021/10/24 05:37:07;;;;;;;62.67;17.80;;;0.70;99.90;;;;;;5023457;28;20073;-74
2021/10/24 05:39:33;;;;;;;75.65;21.83;;;0.70;99.90;;;;;;5031098;28;20049;-73
2021/10/24 05:42:00;;;;;;;103.13;25.52;;;0.70;99.90;;;;;;5031456;28;20052;-74
2021/10/24 05:44:26;;;;;;;111.80;23.15;;;0.70;99.90;;;;;;5028311;28;20084;-74
2021/10/24 05:46:53;;;;;;;86.13;20.48;;;0.60;99.90;;;;;;5032216;28;20403;-74
2021/10/24 05:49:19;;;;;;;59.28;16.90;;;0.60;99.90;;;;;;5022004;28;20025;-73
2021/10/24 05:51:44;;;;;;;66.70;17.60;;;0.50;99.90;;;;;;5021889;28;20064;-75
2021/10/24 05:54:10;;;;;;;33.28;17.52;;;0.60;99.90;;;;;;5022321;28;20021;-74
2021/10/24 05:56:36;;;;;;;79.65;19.88;;;0.60;99.90;;;;;;5022386;28;20096;-74
2021/10/24 05:59:01;;;;;;;40.53;15.27;;;0.60;99.90;;;;;;5021213;28;20080;-74
2021/10/24 06:01:27;;;;;;;80.88;17.20;;;0.60;99.90;;;;;;5021443;28;20529;-73
2021/10/24 06:03:53;;;;;;;53.85;15.02;;;0.60;99.90;;;;;;5021269;28;20022;-74
2021/10/24 06:06:19;;;;;;;78.25;19.55;;;0.60;99.90;;;;;;5016754;28;20136;-74
2021/10/24 06:08:45;;;;;;;130.73;24.38;;;0.60;99.90;;;;;;5010592;28;20187;-74
2021/10/24 06:11:16;;;;;;;106.15;25.75;;;0.50;99.90;;;;;;5014620;28;20029;-75
2021/10/24 06:13:43;;;;;;;56.20;18.50;;;0.60;99.90;;;;;;5019625;28;20049;-74
2021/10/24 06:16:09;;;;;;;59.55;16.65;;;0.60;99.90;;;;;;5025794;28;20040;-74
2021/10/24 06:18:36;;;;;;;46.70;16.23;;;0.60;99.90;;;;;;5024798;28;20029;-74
2021/10/24 06:21:02;;;;;;;54.92;18.00;;;0.60;99.90;;;;;;5026324;28;20150;-74
2021/10/24 06:23:28;;;;;;;68.85;17.60;;;0.60;99.90;;;;;;5027478;28;20068;-74
2021/10/24 06:25:54;;;;;;;82.32;17.88;;;0.60;99.90;;;;;;5026464;28;20553;-75
2021/10/24 06:28:19;;;;;;;36.55;13.73;;;0.70;99.90;;;;;;5027219;28;20017;-75
2021/10/24 06:30:45;;;;;;;70.93;19.13;;;0.70;99.90;;;;;;5025957;28;20052;-74
2021/10/24 06:33:11;;;;;;;47.92;16.77;;;0.80;99.90;;;;;;5023789;28;20407;-75
2021/10/24 06:35:36;;;;;;;82.80;20.45;;;0.80;99.90;;;;;;5024840;28;20037;-74
2021/10/24 06:38:02;;;;;;;56.33;16.88;;;0.90;99.90;;;;;;5023623;28;20022;-75
2021/10/24 06:40:28;;;;;;;70.07;17.52;;;0.90;99.90;;;;;;5022549;28;20030;-73
2021/10/24 06:42:53;;;;;;;55.25;15.38;;;0.90;99.90;;;;;;5017759;28;20025;-74
2021/10/24 06:45:19;;;;;;;70.18;18.33;;;0.90;99.90;;;;;;5020382;28;20032;-74
2021/10/24 06:47:47;;;;;;;125.35;22.98;;;0.90;99.90;;;;;;5023096;28;20194;-74
2021/10/24 06:50:13;;;;;;;64.40;18.25;;;0.90;99.90;;;;;;5025514;28;20026;-74
2021/10/24 06:52:41;;;;;;;91.68;20.60;;;0.90;99.90;;;;;;5024960;28;20022;-74
2021/10/24 06:55:07;;;;;;;62.22;20.98;;;0.90;99.90;;;;;;5025453;28;20540;-74
2021/10/24 06:57:48;;;;;;;78.07;19.60;;;1.00;99.90;;;;;;5021840;28;20095;-74
2021/10/24 07:00:16;;;;;;;76.38;25.83;;;1.00;99.90;;;;;;5021305;28;20033;-74
2021/10/24 07:02:42;;;;;;;67.68;21.13;;;1.10;99.90;;;;;;5023427;28;20044;-74
2021/10/24 07:05:08;;;;;;;112.72;27.65;;;1.10;99.90;;;;;;5028800;28;20022;-73
2021/10/24 07:07:33;;;;;;;137.50;28.98;;;1.20;99.90;;;;;;5028781;28;20862;-75
2021/10/24 07:09:59;;;;;;;119.60;27.83;;;1.20;99.90;;;;;;5028038;28;20037;-74
2021/10/24 07:12:25;;;;;;;92.75;26.58;;;1.30;99.90;;;;;;5026172;28;20029;-74
2021/10/24 07:14:50;;;;;;;150.30;31.60;;;1.30;99.90;;;;;;5022030;28;20037;-73
2021/10/24 07:17:16;;;;;;;126.97;31.15;;;1.40;99.90;;;;;;5017661;28;20034;-75
2021/10/24 07:19:42;;;;;;;104.07;27.23;;;1.40;99.90;;;;;;5025901;28;20488;-74
2021/10/24 07:22:07;;;;;;;137.52;29.70;;;1.50;99.90;;;;;;5024277;28;20018;-74
2021/10/24 07:24:33;;;;;;;152.93;34.17;;;1.60;99.90;;;;;;5024584;28;20021;-74
2021/10/24 07:26:59;;;;;;;159.73;34.60;;;1.60;99.90;;;;;;5024292;28;20109;-74
2021/10/24 07:29:24;;;;;;;156.23;31.23;;;1.70;99.90;;;;;;5024650;28;20033;-74
2021/10/24 07:31:50;;;;;;;167.02;33.95;;;1.70;99.90;;;;;;5020856;28;20029;-74
2021/10/24 07:34:16;;;;;;;181.93;34.65;;;1.80;99.90;;;;;;5024417;28;20092;-73
2021/10/24 07:36:42;;;;;;;103.13;30.15;;;1.90;99.90;;;;;;5021099;28;20124;-74
2021/10/24 07:39:07;;;;;;;81.57;28.55;;;2.00;99.90;;;;;;5021814;28;20760;-74
2021/10/24 07:41:33;;;;;;;87.95;27.50;;;2.10;99.90;;;;;;5024881;28;20014;-75
2021/10/24 07:43:59;;;;;;;79.38;27.15;;;2.20;99.90;;;;;;5023928;28;20026;-73
2021/10/24 07:46:25;;;;;;;204.73;39.88;;;2.20;99.90;;;;;;5015690;28;21376;-74
2021/10/24 07:48:50;;;;;;;114.68;31.95;;;2.30;99.90;;;;;;5023406;28;20491;-74
2021/10/24 07:51:16;;;;;;;149.63;37.28;;;2.30;99.90;;;;;;5020588;28;20044;-74
2021/10/24 07:53:42;;;;;;;108.72;32.00;;;2.30;99.90;;;;;;5021251;28;20057;-74
2021/10/24 07:56:07;;;;;;;144.57;39.38;;;2.40;99.90;;;;;;5020245;28;20124;-74
2021/10/24 07:58:33;;;;;;;136.50;41.38;;;2.40;99.90;;;;;;5024887;28;21285;-73
2021/10/24 08:00:59;;;;;;;113.63;31.05;;;2.40;99.90;;;;;;5027211;28;20116;-73
2021/10/24 08:03:25;;;;;;;144.77;33.65;;;2.30;99.90;;;;;;5025578;28;20547;-74
2021/10/24 08:05:51;;;;;;;161.88;35.13;;;2.30;99.90;;;;;;5021243;28;20037;-74
2021/10/24 08:08:16;;;;;;;160.07;38.25;;;2.30;99.90;;;;;;5022136;28;20071;-75
2021/10/24 08:10:42;;;;;;;152.52;44.42;;;2.40;99.90;;;;;;5022707;28;20014;-75
2021/10/24 08:13:08;;;;;;;166.25;40.33;;;2.50;99.90;;;;;;5025864;28;20022;-74
2021/10/24 08:15:33;;;;;;;250.55;63.67;;;2.50;99.90;;;;;;5027113;28;20041;-73
2021/10/24 08:17:59;;;;;;;178.30;41.90;;;2.50;99.90;;;;;;5025626;28;20029;-74
2021/10/24 08:20:25;;;;;;;141.13;33.90;;;2.60;99.90;;;;;;5023423;28;20022;-74
2021/10/24 08:22:50;;;;;;;179.00;40.55;;;2.60;99.90;;;;;;5024097;28;20494;-75
2021/10/24 08:25:17;;;;;;;194.73;41.22;;;2.70;99.90;;;;;;5022666;28;20037;-74
2021/10/24 08:27:43;;;;;;;103.68;32.58;;;2.70;99.90;;;;;;5026388;28;20022;-74
2021/10/24 08:30:10;;;;;;;103.00;31.40;;;2.80;99.90;;;;;;5022246;28;20030;-74
2021/10/24 08:32:36;;;;;;;166.95;38.08;;;2.70;99.90;;;;;;5017695;28;20034;-73
2021/10/24 08:35:06;;;;;;;119.07;35.30;;;2.80;99.90;;;;;;5022940;28;20833;-74
2021/10/24 08:37:33;;;;;;;84.05;28.23;;;2.90;99.90;;;;;;5016034;28;20034;-74
2021/10/24 08:39:58;;;;;;;139.57;34.20;;;2.90;99.90;;;;;;5015562;28;20024;-73
2021/10/24 08:42:27;;;;;;;108.00;35.03;;;2.90;99.90;;;;;;5016812;28;20454;-75
2021/10/24 08:44:58;;;;;;;132.00;33.67;;;3.00;99.90;;;;;;5022623;28;20410;-73
2021/10/24 08:47:25;;;;;;;132.73;36.80;;;2.90;99.90;;;;;;5021315;28;20029;-73
2021/10/24 08:49:52;;;;;;;105.35;34.92;;;2.80;99.90;;;;;;5022451;28;20021;-75
2021/10/24 08:52:23;;;;;;;78.97;31.20;;;2.80;99.90;;;;;;5025135;28;20024;-73
2021/10/24 08:54:50;;;;;;;137.60;38.63;;;2.80;99.90;;;;;;5024216;28;20108;-73
2021/10/24 08:57:42;;;;;;;134.35;41.13;;;2.80;99.90;;;;;;5023655;28;20046;-74
2021/10/24 09:00:11;;;;;;;141.05;40.38;;;2.80;99.90;;;;;;5020529;28;20483;-73
2021/10/24 09:03:07;;;;;;;139.57;40.15;;;2.80;99.90;;;;;;5020781;28;20041;-74
2021/10/24 09:05:36;;;;;;;145.00;39.15;;;2.80;99.90;;;;;;5020271;28;20023;-74
2021/10/24 09:08:03;;;;;;;120.07;34.13;;;2.80;99.90;;;;;;5021345;28;20034;-73
2021/10/24 09:10:37;;;;;;;105.00;34.15;;;2.90;99.90;;;;;;5014531;28;20030;-74
2021/10/24 09:13:08;;;;;;;122.90;37.10;;;2.90;99.90;;;;;;5015496;28;20042;-74
2021/10/24 09:15:53;;;;;;;104.80;36.30;;;3.10;99.90;;;;;;5015778;28;20057;-74
2021/10/24 09:18:28;;;;;;;136.73;38.03;;;3.20;99.90;;;;;;5030588;28;20170;-73
2021/10/24 09:20:54;;;;;;;122.95;37.45;;;3.20;99.90;;;;;;5029373;28;20010;-74
2021/10/24 09:23:20;;;;;;;107.10;33.10;;;3.40;99.90;;;;;;5029742;28;20120;-74
2021/10/24 09:25:53;;;;;;;191.05;39.47;;;3.40;99.90;;;;;;5013213;28;20336;-73
2021/10/24 09:28:23;;;;;;;147.02;39.67;;;3.30;99.90;;;;;;5024330;28;20033;-73
2021/10/24 09:31:00;;;;;;;124.30;35.85;;;3.30;99.90;;;;;;5025990;28;20021;-73
2021/10/24 09:33:40;;;;;;;165.77;51.72;;;3.30;99.90;;;;;;5029021;28;20842;-74
2021/10/24 09:36:06;;;;;;;158.65;61.15;;;3.40;99.90;;;;;;5027581;28;20030;-73
2021/10/24 09:38:32;;;;;;;113.90;38.17;;;3.40;99.90;;;;;;5010640;28;20209;-72
2021/10/24 09:40:58;;;;;;;95.80;36.15;;;3.50;99.90;;;;;;5021331;28;20492;-72
2021/10/24 09:43:27;;;;;;;87.32;34.47;;;3.50;99.90;;;;;;5017132;28;20034;-73
2021/10/24 09:45:56;;;;;;;95.43;37.22;;;3.60;99.90;;;;;;5013036;28;20026;-73
2021/10/24 09:48:23;;;;;;;113.30;39.30;;;3.80;99.90;;;;;;5015003;28;20061;-72
2021/10/24 09:50:59;;;;;;;97.65;36.58;;;3.80;99.90;;;;;;5026857;28;20036;-72
2021/10/24 09:53:30;;;;;;;94.80;39.13;;;3.70;99.90;;;;;;5019831;28;20410;-72
2021/10/24 09:55:56;;;;;;;79.55;32.03;;;3.70;99.90;;;;;;5020182;28;20042;-72
2021/10/24 09:58:28;;;;;;;79.93;29.50;;;3.70;99.90;;;;;;5019225;28;20502;-72
2021/10/24 10:00:54;;;;;;;75.07;27.88;;;3.70;99.90;;;;;;5019765;28;20021;-72
2021/10/24 10:03:21;;;;;;;75.05;29.80;;;3.70;99.90;;;;;;5016967;28;20084;-71
2021/10/24 10:05:47;;;;;;;67.20;29.88;;;3.80;99.90;;;;;;5022169;28;20076;-72
2021/10/24 10:08:17;;;;;;;70.68;28.13;;;3.80;99.90;;;;;;5019490;28;20038;-72
2021/10/24 10:11:00;;;;;;;83.75;32.97;;;3.90;99.90;;;;;;5011970;28;20113;-72
2021/10/24 10:13:27;;;;;;;;;;;4.00;99.90;;;;;;5012985;28;20033;-72
2021/10/24 10:15:53;;;;;;;77.47;34.33;;;4.10;99.90;;;;;;5010713;28;20430;-73
2021/10/24 10:18:20;;;;;;;56.80;26.05;;;4.20;99.90;;;;;;5015776;28;20360;-72
2021/10/24 10:20:51;;;;;;;76.70;30.20;;;4.40;99.90;;;;;;5017907;28;20104;-72
2021/10/24 10:23:23;;;;;;;67.72;29.10;;;4.40;99.90;;;;;;5022373;28;20045;-72
2021/10/24 10:25:50;;;;;;;69.28;31.15;;;4.50;99.90;;;;;;5018619;28;20159;-74
2021/10/24 10:28:45;;;;;;;73.18;30.30;;;4.50;99.90;;;;;;5031862;28;20457;-75
2021/10/24 10:31:17;;;;;;;74.45;31.92;;;4.70;99.90;;;;;;5031483;28;20482;-75
2021/10/24 10:34:01;;;;;;;75.18;36.08;;;4.80;99.90;;;;;;5014542;28;20092;-74
2021/10/24 10:36:47;;;;;;;78.35;33.58;;;5.00;99.90;;;;;;5024417;28;20088;-74
2021/10/24 10:39:34;;;;;;;81.47;34.72;;;5.10;99.90;;;;;;5024890;28;20037;-74
2021/10/24 10:42:19;;;;;;;75.38;31.75;;;5.10;99.90;;;;;;5025307;28;20025;-74
2021/10/24 10:45:19;;;;;;;76.03;32.47;;;5.20;99.90;;;;;;5026839;28;20021;-73
2021/10/24 10:47:58;;;;;;;83.68;36.28;;;5.20;99.90;;;;;;5017717;28;20053;-74
2021/10/24 10:50:46;;;;;;;72.07;31.83;;;5.30;99.90;;;;;;5024135;28;20053;-73
2021/10/24 10:53:18;;;;;;;75.38;34.55;;;5.50;99.90;;;;;;5018440;28;20018;-74
2021/10/24 10:56:13;;;;;;;89.15;38.72;;;5.40;99.90;;;;;;5029676;28;20038;-74
2021/10/24 10:58:43;;;;;;;86.82;38.58;;;5.50;99.90;;;;;;5024016;28;20083;-74
2021/10/24 11:01:23;;;;;;;83.10;36.70;;;5.50;99.90;;;;;;5018861;28;20510;-74
2021/10/24 11:03:51;;;;;;;73.60;30.40;;;5.50;99.90;;;;;;5019129;28;20415;-74
2021/10/24 11:06:23;;;;;;;66.28;30.33;;;5.60;99.90;;;;;;5015097;28;20215;-74
2021/10/24 11:08:50;;;;;;;75.45;30.70;;;5.70;99.90;;;;;;5015795;28;20492;-73
2021/10/24 11:11:40;;;;;;;67.55;29.42;;;5.80;99.90;;;;;;5015739;28;20064;-75
2021/10/24 11:14:15;;;;;;;66.95;30.42;;;5.90;99.90;;;;;;5013440;28;20493;-73
2021/10/24 11:16:46;;;;;;;87.25;38.20;;;6.10;99.90;;;;;;5012055;28;20034;-74
2021/10/24 11:22:01;;;;;;;75.43;33.65;;;6.40;99.90;;;;;;5019239;28;20038;-75
2021/10/24 11:24:36;;;;;;;66.07;29.58;;;6.30;99.90;;;;;;5019462;28;20080;-74
2021/10/24 11:27:02;;;;;;;61.53;27.88;;;6.50;99.90;;;;;;5020440;28;20021;-74
2021/10/24 11:29:28;;;;;;;55.30;26.70;;;6.40;99.90;;;;;;5021956;28;20032;-74
2021/10/24 11:32:35;;;;;;;51.67;23.67;;;6.40;99.90;;;;;;5022389;28;20014;-75
2021/10/24 11:35:15;;;;;;;57.75;28.50;;;6.20;99.90;;;;;;5024485;28;20022;-74
2021/10/24 11:37:49;;;;;;;69.57;30.65;;;6.10;99.90;;;;;;5023158;28;20096;-74
2021/10/24 11:40:18;;;;;;;73.07;30.25;;;6.20;99.90;;;;;;5022045;28;20026;-74
2021/10/24 11:43:17;;;;;;;61.60;27.92;;;6.20;99.90;;;;;;5017445;28;20380;-74
2021/10/24 11:45:44;;;;;;;58.35;28.15;;;6.30;99.90;;;;;;5027352;28;20368;-74
2021/10/24 11:48:22;;;;;;;68.32;29.33;;;6.30;99.90;;;;;;5019440;28;20026;-74
2021/10/24 11:50:57;;;;;;;68.88;31.98;;;6.30;99.90;;;;;;5025693;28;20434;-75
2021/10/24 11:53:36;;;;;;;82.15;34.75;;;6.40;99.90;;;;;;5022013;28;20025;-73
2021/10/24 11:56:14;;;;;;;61.13;30.25;;;6.40;99.90;;;;;;5026078;28;20152;-74
2021/10/24 12:01:08;;;;;;;80.10;34.45;;;6.60;99.90;;;;;;5023736;28;20356;-74
2021/10/24 12:03:35;;;;;;;68.15;31.65;;;6.80;99.90;;;;;;5019145;28;20029;-74
2021/10/24 12:06:02;;;;;;;64.75;28.77;;;6.80;99.90;;;;;;5025233;28;20100;-75
2021/10/24 12:08:48;;;;;;;62.08;28.38;;;6.80;99.90;;;;;;5020587;28;20379;-74
2021/10/24 12:11:20;;;;;;;60.78;28.40;;;6.90;99.90;;;;;;5024452;28;20108;-74
2021/10/24 12:13:47;;;;;;;55.28;25.73;;;7.10;99.90;;;;;;5025454;28;20371;-75
2021/10/24 12:16:44;;;;;;;61.38;24.90;;;7.10;99.90;;;;;;5024550;28;20399;-74
2021/10/24 12:19:16;;;;;;;51.50;24.00;;;7.20;99.90;;;;;;5012144;28;20037;-74
2021/10/24 12:21:58;;;;;;;57.55;25.02;;;7.20;99.90;;;;;;5024566;28;20109;-73
2021/10/24 12:24:27;;;;;;;60.70;25.17;;;7.30;99.90;;;;;;5023191;28;20021;-74
2021/10/24 12:27:15;;;;;;;50.28;25.35;;;7.30;99.90;;;;;;5024409;28;20071;-74
2021/10/24 12:29:53;;;;;;;54.42;25.08;;;7.40;99.90;;;;;;5025775;28;20029;-74
2021/10/24 12:32:18;;;;;;;57.58;27.70;;;7.50;99.90;;;;;;5021449;28;20048;-74
2021/10/24 12:35:10;;;;;;;51.00;24.73;;;7.50;99.90;;;;;;5025708;28;20049;-74
2021/10/24 12:37:39;;;;;;;53.05;22.77;;;7.60;99.90;;;;;;5027055;28;20033;-74
2021/10/24 12:40:23;;;;;;;50.28;24.23;;;7.70;99.90;;;;;;5024521;28;20403;-74
2021/10/24 12:43:10;;;;;;;60.35;23.20;;;7.70;99.90;;;;;;5026780;28;20032;-74